sensor_id;sensor_type;location;lat;lon;timestamp;P1;durP1;ratioP1;P2;durP2;ratioP2
54641;SDS011;40536;53.194;5.728;2022-11-20T00:00:03;26.55;;;24.02;;
54641;SDS011;40536;53.194;5.728;2022-11-20T00:02:29;25.58;;;22.90;;
54641;SDS011;40536;53.194;5.728;2022-11-20T00:04:55;25.48;;;23.02;;
54641;SDS011;40536;53.194;5.728;2022-11-20T00:07:21;27.02;;;24.23;;
54641;SDS011;40536;53.194;5.728;2022-11-20T00:09:46;25.65;;;23.17;;
54641;SDS011;40536;53.194;5.728;2022-11-20T00:12:12;25.08;;;22.58;;
54641;SDS011;40536;53.194;5.728;2022-11-20T00:14:38;26.42;;;23.92;;
54641;SDS011;40536;53.194;5.728;2022-11-20T00:17:04;27.40;;;22.75;;
54641;SDS011;40536;53.194;5.728;2022-11-20T00:19:29;25.40;;;23.00;;
54641;SDS011;40536;53.194;5.728;2022-11-20T00:21:55;23.95;;;21.83;;
54641;SDS011;40536;53.194;5.728;2022-11-20T00:24:20;23.98;;;21.65;;
54641;SDS011;40536;53.194;5.728;2022-11-20T00:26:46;24.60;;;22.00;;
54641;SDS011;40536;53.194;5.728;2022-11-20T00:29:12;24.27;;;22.00;;
54641;SDS011;40536;53.194;5.728;2022-11-20T00:31:37;22.58;;;20.25;;
54641;SDS011;40536;53.194;5.728;2022-11-20T00:34:03;28.23;;;24.38;;
54641;SDS011;40536;53.194;5.728;2022-11-20T00:36:31;32.35;;;26.58;;
54641;SDS011;40536;53.194;5.728;2022-11-20T00:38:58;26.17;;;23.25;;
54641;SDS011;40536;53.194;5.728;2022-11-20T00:41:25;25.15;;;20.50;;
54641;SDS011;40536;53.194;5.728;2022-11-20T00:43:52;22.92;;;20.65;;
54641;SDS011;40536;53.194;5.728;2022-11-20T00:46:19;22.83;;;20.50;;
54641;SDS011;40536;53.194;5.728;2022-11-20T00:48:47;22.85;;;20.60;;
54641;SDS011;40536;53.194;5.728;2022-11-20T00:51:14;21.55;;;19.38;;
54641;SDS011;40536;53.194;5.728;2022-11-20T00:53:42;23.33;;;21.00;;
54641;SDS011;40536;53.194;5.728;2022-11-20T00:56:12;21.88;;;19.73;;
54641;SDS011;40536;53.194;5.728;2022-11-20T00:58:39;23.92;;;21.45;;
54641;SDS011;40536;53.194;5.728;2022-11-20T01:01:07;24.58;;;21.80;;
54641;SDS011;40536;53.194;5.728;2022-11-20T01:03:41;25.23;;;22.55;;
54641;SDS011;40536;53.194;5.728;2022-11-20T01:06:19;26.10;;;23.50;;
54641;SDS011;40536;53.194;5.728;2022-11-20T01:08:53;27.50;;;24.75;;
54641;SDS011;40536;53.194;5.728;2022-11-20T01:11:21;26.85;;;24.45;;
54641;SDS011;40536;53.194;5.728;2022-11-20T01:13:50;27.70;;;25.23;;
54641;SDS011;40536;53.194;5.728;2022-11-20T01:16:18;26.25;;;23.75;;
54641;SDS011;40536;53.194;5.728;2022-11-20T01:18:48;29.77;;;26.95;;
54641;SDS011;40536;53.194;5.728;2022-11-20T01:21:16;27.25;;;24.83;;
54641;SDS011;40536;53.194;5.728;2022-11-20T01:23:44;26.98;;;24.40;;
54641;SDS011;40536;53.194;5.728;2022-11-20T01:26:14;28.42;;;25.83;;
54641;SDS011;40536;53.194;5.728;2022-11-20T01:28:41;27.63;;;25.13;;
54641;SDS011;40536;53.194;5.728;2022-11-20T01:31:12;29.17;;;26.40;;
54641;SDS011;40536;53.194;5.728;2022-11-20T01:33:44;27.27;;;24.67;;
54641;SDS011;40536;53.194;5.728;2022-11-20T01:36:11;26.63;;;23.90;;
54641;SDS011;40536;53.194;5.728;2022-11-20T01:38:37;26.88;;;24.48;;
54641;SDS011;40536;53.194;5.728;2022-11-20T01:41:04;26.05;;;23.75;;
54641;SDS011;40536;53.194;5.728;2022-11-20T01:43:30;25.90;;;23.42;;
54641;SDS011;40536;53.194;5.728;2022-11-20T01:45:58;26.45;;;24.08;;
54641;SDS011;40536;53.194;5.728;2022-11-20T01:53:59;27.48;;;25.13;;
54641;SDS011;40536;53.194;5.728;2022-11-20T01:56:28;27.05;;;23.15;;
54641;SDS011;40536;53.194;5.728;2022-11-20T01:58:58;26.35;;;23.98;;
54641;SDS011;40536;53.194;5.728;2022-11-20T02:01:26;25.77;;;23.48;;
54641;SDS011;40536;53.194;5.728;2022-11-20T02:03:52;27.05;;;24.45;;
54641;SDS011;40536;53.194;5.728;2022-11-20T02:06:31;28.20;;;25.77;;
54641;SDS011;40536;53.194;5.728;2022-11-20T02:09:07;28.30;;;25.65;;
54641;SDS011;40536;53.194;5.728;2022-11-20T02:11:33;28.17;;;25.65;;
54641;SDS011;40536;53.194;5.728;2022-11-20T02:13:58;28.77;;;26.17;;
54641;SDS011;40536;53.194;5.728;2022-11-20T02:16:25;28.48;;;25.95;;
54641;SDS011;40536;53.194;5.728;2022-11-20T02:18:54;28.65;;;26.17;;
54641;SDS011;40536;53.194;5.728;2022-11-20T02:24:07;28.10;;;25.40;;
54641;SDS011;40536;53.194;5.728;2022-11-20T02:26:47;30.25;;;27.88;;
54641;SDS011;40536;53.194;5.728;2022-11-20T02:32:21;32.58;;;29.77;;
54641;SDS011;40536;53.194;5.728;2022-11-20T02:34:49;32.60;;;29.58;;
54641;SDS011;40536;53.194;5.728;2022-11-20T02:37:15;32.78;;;30.05;;
54641;SDS011;40536;53.194;5.728;2022-11-20T02:39:41;32.03;;;29.15;;
54641;SDS011;40536;53.194;5.728;2022-11-20T02:42:09;30.52;;;27.92;;
54641;SDS011;40536;53.194;5.728;2022-11-20T02:44:35;32.35;;;29.33;;
54641;SDS011;40536;53.194;5.728;2022-11-20T02:47:00;32.22;;;29.35;;
54641;SDS011;40536;53.194;5.728;2022-11-20T02:49:26;33.42;;;30.52;;
54641;SDS011;40536;53.194;5.728;2022-11-20T02:51:52;31.92;;;28.92;;
54641;SDS011;40536;53.194;5.728;2022-11-20T02:54:17;32.83;;;30.08;;
54641;SDS011;40536;53.194;5.728;2022-11-20T02:56:43;34.28;;;31.48;;
54641;SDS011;40536;53.194;5.728;2022-11-20T02:59:09;34.97;;;32.00;;
54641;SDS011;40536;53.194;5.728;2022-11-20T03:01:35;32.97;;;30.08;;
54641;SDS011;40536;53.194;5.728;2022-11-20T03:04:01;34.08;;;30.50;;
54641;SDS011;40536;53.194;5.728;2022-11-20T03:06:27;32.63;;;29.73;;
54641;SDS011;40536;53.194;5.728;2022-11-20T03:08:53;32.83;;;29.83;;
54641;SDS011;40536;53.194;5.728;2022-11-20T03:11:18;31.55;;;29.05;;
54641;SDS011;40536;53.194;5.728;2022-11-20T03:13:44;31.30;;;28.75;;
54641;SDS011;40536;53.194;5.728;2022-11-20T03:16:11;31.88;;;28.95;;
54641;SDS011;40536;53.194;5.728;2022-11-20T03:18:41;29.95;;;27.50;;
54641;SDS011;40536;53.194;5.728;2022-11-20T03:21:07;31.10;;;28.13;;
54641;SDS011;40536;53.194;5.728;2022-11-20T03:23:34;31.75;;;29.05;;
54641;SDS011;40536;53.194;5.728;2022-11-20T03:26:07;31.08;;;28.20;;
54641;SDS011;40536;53.194;5.728;2022-11-20T03:28:34;32.97;;;29.67;;
54641;SDS011;40536;53.194;5.728;2022-11-20T03:31:10;31.58;;;28.88;;
54641;SDS011;40536;53.194;5.728;2022-11-20T03:33:37;30.10;;;27.40;;
54641;SDS011;40536;53.194;5.728;2022-11-20T03:36:05;31.35;;;28.58;;
54641;SDS011;40536;53.194;5.728;2022-11-20T03:38:33;29.60;;;27.00;;
54641;SDS011;40536;53.194;5.728;2022-11-20T03:41:04;30.45;;;27.75;;
54641;SDS011;40536;53.194;5.728;2022-11-20T03:43:31;30.05;;;27.48;;
54641;SDS011;40536;53.194;5.728;2022-11-20T03:45:57;30.40;;;27.40;;
54641;SDS011;40536;53.194;5.728;2022-11-20T03:48:23;29.63;;;26.92;;
54641;SDS011;40536;53.194;5.728;2022-11-20T03:50:49;32.03;;;29.00;;
54641;SDS011;40536;53.194;5.728;2022-11-20T03:53:15;30.52;;;27.58;;
54641;SDS011;40536;53.194;5.728;2022-11-20T03:55:41;28.08;;;25.48;;
54641;SDS011;40536;53.194;5.728;2022-11-20T03:58:07;28.35;;;25.63;;
54641;SDS011;40536;53.194;5.728;2022-11-20T04:00:33;27.92;;;25.42;;
54641;SDS011;40536;53.194;5.728;2022-11-20T04:03:00;26.52;;;24.02;;
54641;SDS011;40536;53.194;5.728;2022-11-20T04:05:26;25.83;;;23.02;;
54641;SDS011;40536;53.194;5.728;2022-11-20T04:07:52;27.67;;;25.27;;
54641;SDS011;40536;53.194;5.728;2022-11-20T04:10:18;26.15;;;23.58;;
54641;SDS011;40536;53.194;5.728;2022-11-20T04:12:44;26.92;;;24.27;;
54641;SDS011;40536;53.194;5.728;2022-11-20T04:15:10;26.35;;;23.83;;
54641;SDS011;40536;53.194;5.728;2022-11-20T04:17:35;25.85;;;23.45;;
54641;SDS011;40536;53.194;5.728;2022-11-20T04:20:02;25.98;;;23.58;;
54641;SDS011;40536;53.194;5.728;2022-11-20T04:22:28;25.65;;;23.40;;
54641;SDS011;40536;53.194;5.728;2022-11-20T04:24:53;28.33;;;25.73;;
54641;SDS011;40536;53.194;5.728;2022-11-20T04:27:19;27.23;;;24.83;;
54641;SDS011;40536;53.194;5.728;2022-11-20T04:29:45;29.95;;;27.40;;
54641;SDS011;40536;53.194;5.728;2022-11-20T04:32:10;29.85;;;27.25;;
54641;SDS011;40536;53.194;5.728;2022-11-20T04:34:36;28.92;;;26.23;;
54641;SDS011;40536;53.194;5.728;2022-11-20T04:37:01;30.73;;;28.13;;
54641;SDS011;40536;53.194;5.728;2022-11-20T04:39:27;28.40;;;25.75;;
54641;SDS011;40536;53.194;5.728;2022-11-20T04:41:53;30.75;;;28.08;;
54641;SDS011;40536;53.194;5.728;2022-11-20T04:44:38;31.30;;;28.70;;
54641;SDS011;40536;53.194;5.728;2022-11-20T04:47:04;30.15;;;27.67;;
54641;SDS011;40536;53.194;5.728;2022-11-20T04:49:30;31.98;;;29.33;;
54641;SDS011;40536;53.194;5.728;2022-11-20T04:51:56;29.35;;;26.90;;
54641;SDS011;40536;53.194;5.728;2022-11-20T04:54:22;28.40;;;26.10;;
54641;SDS011;40536;53.194;5.728;2022-11-20T04:56:48;28.15;;;25.67;;
54641;SDS011;40536;53.194;5.728;2022-11-20T04:59:14;28.17;;;25.58;;
54641;SDS011;40536;53.194;5.728;2022-11-20T05:01:40;26.90;;;24.55;;
54641;SDS011;40536;53.194;5.728;2022-11-20T05:04:05;25.70;;;23.17;;
54641;SDS011;40536;53.194;5.728;2022-11-20T05:06:31;25.65;;;23.45;;
54641;SDS011;40536;53.194;5.728;2022-11-20T05:08:57;26.73;;;24.13;;
54641;SDS011;40536;53.194;5.728;2022-11-20T05:11:23;26.63;;;24.33;;
54641;SDS011;40536;53.194;5.728;2022-11-20T05:13:49;27.83;;;24.98;;
54641;SDS011;40536;53.194;5.728;2022-11-20T05:16:17;39.22;;;36.13;;
54641;SDS011;40536;53.194;5.728;2022-11-20T05:18:44;32.63;;;29.73;;
54641;SDS011;40536;53.194;5.728;2022-11-20T05:21:11;38.58;;;35.42;;
54641;SDS011;40536;53.194;5.728;2022-11-20T05:23:37;36.00;;;33.00;;
54641;SDS011;40536;53.194;5.728;2022-11-20T05:26:04;36.47;;;33.53;;
54641;SDS011;40536;53.194;5.728;2022-11-20T05:28:31;38.50;;;35.38;;
54641;SDS011;40536;53.194;5.728;2022-11-20T05:31:04;40.97;;;37.90;;
54641;SDS011;40536;53.194;5.728;2022-11-20T05:33:31;41.40;;;38.15;;
54641;SDS011;40536;53.194;5.728;2022-11-20T05:36:01;42.63;;;39.55;;
54641;SDS011;40536;53.194;5.728;2022-11-20T05:38:28;39.55;;;36.38;;
54641;SDS011;40536;53.194;5.728;2022-11-20T05:40:54;40.35;;;37.15;;
54641;SDS011;40536;53.194;5.728;2022-11-20T05:43:20;41.53;;;38.50;;
54641;SDS011;40536;53.194;5.728;2022-11-20T05:45:52;42.58;;;39.30;;
54641;SDS011;40536;53.194;5.728;2022-11-20T05:48:19;44.10;;;40.97;;
54641;SDS011;40536;53.194;5.728;2022-11-20T05:50:45;43.05;;;39.67;;
54641;SDS011;40536;53.194;5.728;2022-11-20T05:53:10;51.22;;;47.65;;
54641;SDS011;40536;53.194;5.728;2022-11-20T05:55:36;45.55;;;42.22;;
54641;SDS011;40536;53.194;5.728;2022-11-20T05:58:01;43.08;;;40.03;;
54641;SDS011;40536;53.194;5.728;2022-11-20T06:00:27;38.85;;;35.97;;
54641;SDS011;40536;53.194;5.728;2022-11-20T06:02:53;40.22;;;37.47;;
54641;SDS011;40536;53.194;5.728;2022-11-20T06:05:18;34.42;;;31.80;;
54641;SDS011;40536;53.194;5.728;2022-11-20T06:07:44;37.58;;;34.65;;
54641;SDS011;40536;53.194;5.728;2022-11-20T06:10:10;36.83;;;34.10;;
54641;SDS011;40536;53.194;5.728;2022-11-20T06:12:36;38.05;;;35.08;;
54641;SDS011;40536;53.194;5.728;2022-11-20T06:15:02;35.42;;;32.72;;
54641;SDS011;40536;53.194;5.728;2022-11-20T06:17:29;37.00;;;34.30;;
54641;SDS011;40536;53.194;5.728;2022-11-20T06:19:54;39.20;;;36.25;;
54641;SDS011;40536;53.194;5.728;2022-11-20T06:22:20;37.15;;;34.28;;
54641;SDS011;40536;53.194;5.728;2022-11-20T06:24:45;36.00;;;33.20;;
54641;SDS011;40536;53.194;5.728;2022-11-20T06:27:11;35.03;;;32.35;;
54641;SDS011;40536;53.194;5.728;2022-11-20T06:29:37;34.95;;;32.30;;
54641;SDS011;40536;53.194;5.728;2022-11-20T06:32:02;32.53;;;30.08;;
54641;SDS011;40536;53.194;5.728;2022-11-20T06:34:28;33.22;;;30.55;;
54641;SDS011;40536;53.194;5.728;2022-11-20T06:36:54;31.95;;;29.48;;
54641;SDS011;40536;53.194;5.728;2022-11-20T06:39:19;33.40;;;30.90;;
54641;SDS011;40536;53.194;5.728;2022-11-20T06:41:45;32.95;;;30.17;;
54641;SDS011;40536;53.194;5.728;2022-11-20T06:44:10;32.30;;;29.52;;
54641;SDS011;40536;53.194;5.728;2022-11-20T06:46:36;38.17;;;35.03;;
54641;SDS011;40536;53.194;5.728;2022-11-20T06:49:02;46.33;;;42.15;;
54641;SDS011;40536;53.194;5.728;2022-11-20T06:51:27;42.47;;;39.47;;
54641;SDS011;40536;53.194;5.728;2022-11-20T06:53:53;44.30;;;41.00;;
54641;SDS011;40536;53.194;5.728;2022-11-20T06:56:19;41.20;;;38.25;;
54641;SDS011;40536;53.194;5.728;2022-11-20T06:58:45;41.10;;;37.75;;
54641;SDS011;40536;53.194;5.728;2022-11-20T07:01:11;40.15;;;37.00;;
54641;SDS011;40536;53.194;5.728;2022-11-20T07:03:38;39.95;;;36.97;;
54641;SDS011;40536;53.194;5.728;2022-11-20T07:06:04;43.17;;;40.03;;
54641;SDS011;40536;53.194;5.728;2022-11-20T07:08:30;40.65;;;37.55;;
54641;SDS011;40536;53.194;5.728;2022-11-20T07:10:57;40.83;;;37.88;;
54641;SDS011;40536;53.194;5.728;2022-11-20T07:13:24;37.50;;;34.72;;
54641;SDS011;40536;53.194;5.728;2022-11-20T07:15:51;40.00;;;37.00;;
54641;SDS011;40536;53.194;5.728;2022-11-20T07:18:16;39.17;;;36.20;;
54641;SDS011;40536;53.194;5.728;2022-11-20T07:20:42;39.67;;;36.58;;
54641;SDS011;40536;53.194;5.728;2022-11-20T07:23:08;39.13;;;36.00;;
54641;SDS011;40536;53.194;5.728;2022-11-20T07:25:33;40.08;;;37.28;;
54641;SDS011;40536;53.194;5.728;2022-11-20T07:27:59;41.38;;;38.38;;
54641;SDS011;40536;53.194;5.728;2022-11-20T07:30:29;40.00;;;36.92;;
54641;SDS011;40536;53.194;5.728;2022-11-20T07:32:55;44.13;;;40.72;;
54641;SDS011;40536;53.194;5.728;2022-11-20T07:35:22;48.83;;;45.13;;
54641;SDS011;40536;53.194;5.728;2022-11-20T07:37:48;43.58;;;40.42;;
54641;SDS011;40536;53.194;5.728;2022-11-20T07:40:17;45.88;;;42.47;;
54641;SDS011;40536;53.194;5.728;2022-11-20T07:45:15;50.67;;;47.15;;
54641;SDS011;40536;53.194;5.728;2022-11-20T07:47:42;50.65;;;47.08;;
54641;SDS011;40536;53.194;5.728;2022-11-20T07:50:08;45.78;;;42.40;;
54641;SDS011;40536;53.194;5.728;2022-11-20T07:52:33;47.50;;;44.00;;
54641;SDS011;40536;53.194;5.728;2022-11-20T07:54:59;52.03;;;48.13;;
54641;SDS011;40536;53.194;5.728;2022-11-20T07:57:25;44.55;;;41.10;;
54641;SDS011;40536;53.194;5.728;2022-11-20T07:59:51;50.42;;;46.67;;
54641;SDS011;40536;53.194;5.728;2022-11-20T08:02:16;45.33;;;41.80;;
54641;SDS011;40536;53.194;5.728;2022-11-20T08:04:42;45.85;;;42.33;;
54641;SDS011;40536;53.194;5.728;2022-11-20T08:07:07;49.92;;;46.20;;
54641;SDS011;40536;53.194;5.728;2022-11-20T08:09:33;40.28;;;37.10;;
54641;SDS011;40536;53.194;5.728;2022-11-20T08:11:59;46.90;;;43.10;;
54641;SDS011;40536;53.194;5.728;2022-11-20T08:14:43;53.85;;;49.05;;
54641;SDS011;40536;53.194;5.728;2022-11-20T08:17:08;45.00;;;41.30;;
54641;SDS011;40536;53.194;5.728;2022-11-20T08:19:35;45.67;;;42.20;;
54641;SDS011;40536;53.194;5.728;2022-11-20T08:22:00;49.03;;;45.35;;
54641;SDS011;40536;53.194;5.728;2022-11-20T08:24:26;52.10;;;48.33;;
54641;SDS011;40536;53.194;5.728;2022-11-20T08:26:51;55.38;;;51.38;;
54641;SDS011;40536;53.194;5.728;2022-11-20T08:29:17;56.05;;;52.10;;
54641;SDS011;40536;53.194;5.728;2022-11-20T08:31:43;47.72;;;44.08;;
54641;SDS011;40536;53.194;5.728;2022-11-20T08:34:09;48.85;;;45.28;;
54641;SDS011;40536;53.194;5.728;2022-11-20T08:36:35;46.45;;;42.05;;
54641;SDS011;40536;53.194;5.728;2022-11-20T08:39:01;45.88;;;42.13;;
54641;SDS011;40536;53.194;5.728;2022-11-20T08:41:28;47.33;;;43.63;;
54641;SDS011;40536;53.194;5.728;2022-11-20T08:46:24;49.85;;;46.05;;
54641;SDS011;40536;53.194;5.728;2022-11-20T08:48:51;49.75;;;46.10;;
54641;SDS011;40536;53.194;5.728;2022-11-20T08:51:17;45.30;;;41.75;;
54641;SDS011;40536;53.194;5.728;2022-11-20T08:53:43;44.00;;;40.50;;
54641;SDS011;40536;53.194;5.728;2022-11-20T08:56:09;46.72;;;42.95;;
54641;SDS011;40536;53.194;5.728;2022-11-20T08:58:35;43.55;;;39.95;;
54641;SDS011;40536;53.194;5.728;2022-11-20T09:01:01;45.85;;;42.28;;
54641;SDS011;40536;53.194;5.728;2022-11-20T09:03:27;45.17;;;41.83;;
54641;SDS011;40536;53.194;5.728;2022-11-20T09:05:57;43.03;;;39.47;;
54641;SDS011;40536;53.194;5.728;2022-11-20T09:08:25;41.58;;;38.13;;
54641;SDS011;40536;53.194;5.728;2022-11-20T09:10:52;43.80;;;40.30;;
54641;SDS011;40536;53.194;5.728;2022-11-20T09:13:19;42.42;;;38.88;;
54641;SDS011;40536;53.194;5.728;2022-11-20T09:15:45;39.25;;;36.15;;
54641;SDS011;40536;53.194;5.728;2022-11-20T09:18:11;37.47;;;34.17;;
54641;SDS011;40536;53.194;5.728;2022-11-20T09:20:38;35.78;;;32.58;;
54641;SDS011;40536;53.194;5.728;2022-11-20T09:23:03;34.38;;;31.23;;
54641;SDS011;40536;53.194;5.728;2022-11-20T09:25:29;34.25;;;31.23;;
54641;SDS011;40536;53.194;5.728;2022-11-20T09:27:55;31.70;;;28.80;;
54641;SDS011;40536;53.194;5.728;2022-11-20T09:30:22;29.88;;;27.02;;
54641;SDS011;40536;53.194;5.728;2022-11-20T09:32:48;28.42;;;25.83;;
54641;SDS011;40536;53.194;5.728;2022-11-20T09:35:13;27.75;;;25.25;;
54641;SDS011;40536;53.194;5.728;2022-11-20T09:37:39;28.63;;;25.95;;
54641;SDS011;40536;53.194;5.728;2022-11-20T09:40:05;27.95;;;25.05;;
54641;SDS011;40536;53.194;5.728;2022-11-20T09:42:41;27.38;;;24.77;;
54641;SDS011;40536;53.194;5.728;2022-11-20T09:48:29;24.48;;;22.20;;
54641;SDS011;40536;53.194;5.728;2022-11-20T09:54:04;24.65;;;21.88;;
54641;SDS011;40536;53.194;5.728;2022-11-20T09:56:39;23.60;;;21.15;;
54641;SDS011;40536;53.194;5.728;2022-11-20T09:59:18;23.10;;;20.73;;
54641;SDS011;40536;53.194;5.728;2022-11-20T10:02:01;21.80;;;19.45;;
54641;SDS011;40536;53.194;5.728;2022-11-20T10:04:31;23.55;;;21.15;;
54641;SDS011;40536;53.194;5.728;2022-11-20T10:07:03;21.92;;;18.55;;
54641;SDS011;40536;53.194;5.728;2022-11-20T10:09:31;20.80;;;18.63;;
54641;SDS011;40536;53.194;5.728;2022-11-20T10:20:13;23.73;;;17.95;;
54641;SDS011;40536;53.194;5.728;2022-11-20T10:25:56;18.58;;;16.63;;
54641;SDS011;40536;53.194;5.728;2022-11-20T10:28:30;19.67;;;16.92;;
54641;SDS011;40536;53.194;5.728;2022-11-20T10:31:02;20.17;;;16.73;;
54641;SDS011;40536;53.194;5.728;2022-11-20T10:33:33;23.63;;;18.30;;
54641;SDS011;40536;53.194;5.728;2022-11-20T10:36:21;21.50;;;18.17;;
54641;SDS011;40536;53.194;5.728;2022-11-20T10:39:01;27.58;;;17.92;;
54641;SDS011;40536;53.194;5.728;2022-11-20T10:41:33;22.45;;;17.83;;
54641;SDS011;40536;53.194;5.728;2022-11-20T10:47:11;19.98;;;17.85;;
54641;SDS011;40536;53.194;5.728;2022-11-20T10:49:39;20.42;;;17.30;;
54641;SDS011;40536;53.194;5.728;2022-11-20T11:00:09;21.15;;;15.05;;
54641;SDS011;40536;53.194;5.728;2022-11-20T11:02:39;20.58;;;16.02;;
54641;SDS011;40536;53.194;5.728;2022-11-20T11:07:51;19.58;;;15.05;;
54641;SDS011;40536;53.194;5.728;2022-11-20T11:13:00;16.95;;;13.00;;
54641;SDS011;40536;53.194;5.728;2022-11-20T11:17:52;14.90;;;12.63;;
54641;SDS011;40536;53.194;5.728;2022-11-20T11:20:19;16.55;;;12.70;;
54641;SDS011;40536;53.194;5.728;2022-11-20T11:22:51;16.75;;;11.88;;
54641;SDS011;40536;53.194;5.728;2022-11-20T11:27:48;17.45;;;12.57;;
54641;SDS011;40536;53.194;5.728;2022-11-20T11:30:16;16.40;;;11.23;;
54641;SDS011;40536;53.194;5.728;2022-11-20T11:32:43;13.88;;;10.82;;
54641;SDS011;40536;53.194;5.728;2022-11-20T11:35:23;15.10;;;10.93;;
54641;SDS011;40536;53.194;5.728;2022-11-20T11:37:51;13.02;;;10.00;;
54641;SDS011;40536;53.194;5.728;2022-11-20T11:40:19;14.88;;;10.25;;
54641;SDS011;40536;53.194;5.728;2022-11-20T11:42:51;14.32;;;9.80;;
54641;SDS011;40536;53.194;5.728;2022-11-20T11:45:20;14.40;;;9.23;;
54641;SDS011;40536;53.194;5.728;2022-11-20T11:47:47;11.45;;;7.50;;
54641;SDS011;40536;53.194;5.728;2022-11-20T11:50:23;12.43;;;7.95;;
54641;SDS011;40536;53.194;5.728;2022-11-20T11:55:31;13.43;;;9.40;;
54641;SDS011;40536;53.194;5.728;2022-11-20T12:00:54;12.30;;;9.25;;
54641;SDS011;40536;53.194;5.728;2022-11-20T12:03:38;10.90;;;8.40;;
54641;SDS011;40536;53.194;5.728;2022-11-20T12:06:12;13.13;;;9.50;;
54641;SDS011;40536;53.194;5.728;2022-11-20T12:14:00;12.18;;;8.57;;
54641;SDS011;40536;53.194;5.728;2022-11-20T12:16:35;10.77;;;8.13;;
54641;SDS011;40536;53.194;5.728;2022-11-20T12:19:04;11.65;;;8.40;;
54641;SDS011;40536;53.194;5.728;2022-11-20T12:35:17;15.45;;;9.98;;
54641;SDS011;40536;53.194;5.728;2022-11-20T12:37:48;21.38;;;11.70;;
54641;SDS011;40536;53.194;5.728;2022-11-20T12:40:28;12.88;;;8.88;;
54641;SDS011;40536;53.194;5.728;2022-11-20T12:43:17;11.95;;;8.13;;
54641;SDS011;40536;53.194;5.728;2022-11-20T12:54:11;10.40;;;8.40;;
54641;SDS011;40536;53.194;5.728;2022-11-20T13:00:09;13.10;;;8.77;;
54641;SDS011;40536;53.194;5.728;2022-11-20T13:08:24;11.25;;;8.20;;
54641;SDS011;40536;53.194;5.728;2022-11-20T13:16:26;11.95;;;8.45;;
54641;SDS011;40536;53.194;5.728;2022-11-20T13:19:02;13.05;;;8.73;;
54641;SDS011;40536;53.194;5.728;2022-11-20T13:24:04;11.43;;;8.43;;
54641;SDS011;40536;53.194;5.728;2022-11-20T13:29:36;12.82;;;8.45;;
54641;SDS011;40536;53.194;5.728;2022-11-20T13:32:26;14.95;;;9.40;;
54641;SDS011;40536;53.194;5.728;2022-11-20T13:34:56;11.88;;;9.05;;
54641;SDS011;40536;53.194;5.728;2022-11-20T13:37:26;12.75;;;9.32;;
54641;SDS011;40536;53.194;5.728;2022-11-20T13:42:54;12.85;;;8.93;;
54641;SDS011;40536;53.194;5.728;2022-11-20T13:45:26;14.90;;;9.40;;
54641;SDS011;40536;53.194;5.728;2022-11-20T13:47:54;14.38;;;9.30;;
54641;SDS011;40536;53.194;5.728;2022-11-20T13:50:38;13.00;;;8.82;;
54641;SDS011;40536;53.194;5.728;2022-11-20T13:53:15;12.80;;;9.18;;
54641;SDS011;40536;53.194;5.728;2022-11-20T13:55:48;12.50;;;9.55;;
54641;SDS011;40536;53.194;5.728;2022-11-20T13:58:40;12.90;;;9.52;;
54641;SDS011;40536;53.194;5.728;2022-11-20T14:01:20;14.75;;;9.65;;
54641;SDS011;40536;53.194;5.728;2022-11-20T14:03:49;13.73;;;9.80;;
54641;SDS011;40536;53.194;5.728;2022-11-20T14:08:52;14.05;;;9.57;;
54641;SDS011;40536;53.194;5.728;2022-11-20T14:11:19;12.32;;;9.10;;
54641;SDS011;40536;53.194;5.728;2022-11-20T14:13:55;13.73;;;9.85;;
54641;SDS011;40536;53.194;5.728;2022-11-20T14:16:24;12.38;;;9.10;;
54641;SDS011;40536;53.194;5.728;2022-11-20T14:18:51;14.45;;;10.20;;
54641;SDS011;40536;53.194;5.728;2022-11-20T14:24:03;14.23;;;9.80;;
54641;SDS011;40536;53.194;5.728;2022-11-20T14:26:30;13.27;;;9.52;;
54641;SDS011;40536;53.194;5.728;2022-11-20T14:28:56;16.05;;;9.85;;
54641;SDS011;40536;53.194;5.728;2022-11-20T14:31:23;13.43;;;9.90;;
54641;SDS011;40536;53.194;5.728;2022-11-20T14:33:51;12.55;;;10.07;;
54641;SDS011;40536;53.194;5.728;2022-11-20T14:36:18;14.70;;;10.13;;
54641;SDS011;40536;53.194;5.728;2022-11-20T14:38:46;14.18;;;9.50;;
54641;SDS011;40536;53.194;5.728;2022-11-20T14:41:19;13.23;;;9.52;;
54641;SDS011;40536;53.194;5.728;2022-11-20T14:43:52;13.00;;;9.73;;
54641;SDS011;40536;53.194;5.728;2022-11-20T14:46:22;14.52;;;10.00;;
54641;SDS011;40536;53.194;5.728;2022-11-20T14:48:53;15.48;;;9.82;;
54641;SDS011;40536;53.194;5.728;2022-11-20T14:53:53;14.93;;;10.43;;
54641;SDS011;40536;53.194;5.728;2022-11-20T14:56:22;15.05;;;10.43;;
54641;SDS011;40536;53.194;5.728;2022-11-20T14:58:56;15.30;;;10.25;;
54641;SDS011;40536;53.194;5.728;2022-11-20T15:03:59;14.77;;;10.48;;
54641;SDS011;40536;53.194;5.728;2022-11-20T15:06:34;16.15;;;9.68;;
54641;SDS011;40536;53.194;5.728;2022-11-20T15:09:02;12.52;;;8.95;;
54641;SDS011;40536;53.194;5.728;2022-11-20T15:11:29;14.85;;;9.88;;
54641;SDS011;40536;53.194;5.728;2022-11-20T15:13:58;14.52;;;10.18;;
54641;SDS011;40536;53.194;5.728;2022-11-20T15:16:28;14.18;;;9.85;;
54641;SDS011;40536;53.194;5.728;2022-11-20T15:18:55;13.60;;;9.50;;
54641;SDS011;40536;53.194;5.728;2022-11-20T15:21:21;16.60;;;9.20;;
54641;SDS011;40536;53.194;5.728;2022-11-20T15:23:46;13.23;;;9.10;;
54641;SDS011;40536;53.194;5.728;2022-11-20T15:26:13;12.75;;;8.98;;
54641;SDS011;40536;53.194;5.728;2022-11-20T15:28:43;13.55;;;9.75;;
54641;SDS011;40536;53.194;5.728;2022-11-20T15:31:12;13.00;;;9.32;;
54641;SDS011;40536;53.194;5.728;2022-11-20T15:33:39;12.30;;;9.55;;
54641;SDS011;40536;53.194;5.728;2022-11-20T15:36:05;15.70;;;9.77;;
54641;SDS011;40536;53.194;5.728;2022-11-20T15:38:30;13.68;;;9.13;;
54641;SDS011;40536;53.194;5.728;2022-11-20T15:40:56;12.13;;;8.70;;
54641;SDS011;40536;53.194;5.728;2022-11-20T15:43:22;14.38;;;9.40;;
54641;SDS011;40536;53.194;5.728;2022-11-20T15:45:53;12.15;;;8.85;;
54641;SDS011;40536;53.194;5.728;2022-11-20T15:48:23;13.20;;;9.93;;
54641;SDS011;40536;53.194;5.728;2022-11-20T15:50:54;12.73;;;8.63;;
54641;SDS011;40536;53.194;5.728;2022-11-20T15:53:36;12.60;;;8.50;;
54641;SDS011;40536;53.194;5.728;2022-11-20T15:56:06;13.05;;;8.73;;
54641;SDS011;40536;53.194;5.728;2022-11-20T15:58:36;12.55;;;8.80;;
54641;SDS011;40536;53.194;5.728;2022-11-20T16:01:02;12.48;;;9.10;;
54641;SDS011;40536;53.194;5.728;2022-11-20T16:03:27;13.23;;;8.65;;
54641;SDS011;40536;53.194;5.728;2022-11-20T16:05:53;13.32;;;9.05;;
54641;SDS011;40536;53.194;5.728;2022-11-20T16:08:19;12.63;;;9.18;;
54641;SDS011;40536;53.194;5.728;2022-11-20T16:10:44;11.77;;;9.10;;
54641;SDS011;40536;53.194;5.728;2022-11-20T16:13:14;14.55;;;9.48;;
54641;SDS011;40536;53.194;5.728;2022-11-20T16:16:02;13.73;;;9.68;;
54641;SDS011;40536;53.194;5.728;2022-11-20T16:18:30;13.52;;;9.50;;
54641;SDS011;40536;53.194;5.728;2022-11-20T16:20:56;13.27;;;9.35;;
54641;SDS011;40536;53.194;5.728;2022-11-20T16:23:22;13.07;;;8.95;;
54641;SDS011;40536;53.194;5.728;2022-11-20T16:25:48;13.82;;;9.23;;
54641;SDS011;40536;53.194;5.728;2022-11-20T16:28:15;13.50;;;10.20;;
54641;SDS011;40536;53.194;5.728;2022-11-20T16:30:41;13.52;;;9.40;;